Time;durP1;ratioP1;P1;durP2;ratioP2;P2;SDS_P1;SDS_P2;PMS_P1;PMS_P2;Temp;Humidity;BMP_temperature;BMP_pressure;BME280_temperature;BME280_humidity;BME280_pressure;Samples;Min_cycle;Max_cycle;Signal;HPM_P1;HPM_P2
2021/03/04 00:00:37;;;;;;;96.80;33.65;;;4.70;99.90;;;;;;4948943;28;20093;-88
2021/03/04 00:03:27;;;;;;;99.15;34.85;;;4.60;99.90;;;;;;4955884;27;20093;-87
2021/03/04 00:05:59;;;;;;;91.68;30.77;;;4.60;99.90;;;;;;4952519;27;20092;-90
2021/03/04 00:08:22;;;;;;;96.30;32.78;;;4.50;99.90;;;;;;4957981;27;20492;-89
2021/03/04 00:10:55;;;;;;;94.32;31.40;;;4.50;99.90;;;;;;4943882;27;20085;-89
2021/03/04 00:13:22;;;;;;;102.57;32.97;;;4.50;99.90;;;;;;4953536;27;20156;-90
2021/03/04 00:15:46;;;;;;;94.72;33.25;;;4.40;99.90;;;;;;4945807;28;20402;-89
2021/03/04 00:18:16;;;;;;;98.47;31.08;;;4.30;99.90;;;;;;4941486;28;20502;-90
2021/03/04 00:20:41;;;;;;;93.07;30.90;;;4.20;99.90;;;;;;4950885;28;20157;-90
2021/03/04 00:23:14;;;;;;;108.03;34.38;;;4.10;99.90;;;;;;4941781;27;20086;-89
2021/03/04 00:26:03;;;;;;;91.35;30.77;;;4.20;99.90;;;;;;4946148;27;20086;-90
2021/03/04 00:28:29;;;;;;;101.32;33.45;;;4.10;99.90;;;;;;4934183;28;20082;-89
2021/03/04 00:30:52;;;;;;;94.15;31.42;;;4.10;99.90;;;;;;4958271;27;20082;-90
2021/03/04 00:33:17;;;;;;;89.97;32.72;;;4.10;99.90;;;;;;4953147;27;20180;-90
2021/03/04 00:35:40;;;;;;;97.93;32.50;;;4.00;99.90;;;;;;4954048;27;20097;-90
2021/03/04 00:38:19;;;;;;;120.03;35.75;;;;;;;;;;4943758;27;20168;-84
2021/03/04 00:40:49;;;;;;;125.13;36.65;;;3.80;99.90;;;;;;4956354;27;20086;-84
2021/03/04 00:43:24;;;;;;;131.70;42.63;;;3.80;99.90;;;;;;4940716;27;20497;-90
2021/03/04 00:45:56;;;;;;;141.93;41.40;;;3.80;99.90;;;;;;4944302;27;20091;-89
2021/03/04 00:48:33;;;;;;;154.35;44.63;;;3.80;99.90;;;;;;4962590;27;20098;-89
2021/03/04 00:51:05;;;;;;;154.20;48.47;;;3.80;99.90;;;;;;4953447;27;20086;-89
2021/03/04 00:53:36;;;;;;;146.45;44.38;;;3.70;99.90;;;;;;4948193;27;20082;-86
2021/03/04 00:55:59;;;;;;;168.80;45.65;;;3.70;99.90;;;;;;4947441;27;20082;-89
2021/03/04 00:58:24;;;;;;;157.52;46.45;;;3.70;99.90;;;;;;4949595;27;20113;-89
2021/03/04 01:00:47;;;;;;;166.18;47.75;;;3.70;99.90;;;;;;4961098;27;20483;-87
2021/03/04 01:03:09;;;;;;;130.20;39.20;;;3.70;99.90;;;;;;4950612;27;20082;-90
2021/03/04 01:06:01;;;;;;;158.98;44.35;;;3.70;99.90;;;;;;4957034;27;20108;-89
2021/03/04 01:08:26;;;;;;;116.78;38.78;;;3.60;99.90;;;;;;4945934;27;20086;-90
2021/03/04 01:10:49;;;;;;;106.20;33.42;;;3.40;99.90;;;;;;4942880;27;20086;-89
2021/03/04 01:13:14;;;;;;;109.10;35.45;;;3.40;99.90;;;;;;4950848;27;20094;-88
2021/03/04 01:15:50;;;;;;;;;;;3.30;99.90;;;;;;4952158;27;20093;-89
2021/03/04 01:18:29;;;;;;;113.35;40.22;;;3.30;99.90;;;;;;4963089;27;20004;-89
2021/03/04 01:20:51;;;;;;;137.68;44.45;;;3.30;99.90;;;;;;4951954;27;20082;-89
2021/03/04 01:23:26;;;;;;;115.68;39.67;;;3.30;99.90;;;;;;4951681;27;20093;-89
2021/03/04 01:25:49;;;;;;;117.63;40.47;;;3.30;99.90;;;;;;4947206;27;20086;-88
2021/03/04 01:28:19;;;;;;;126.35;40.28;;;3.30;99.90;;;;;;4952976;27;20650;-89
2021/03/04 01:30:49;;;;;;;113.40;37.42;;;3.30;99.90;;;;;;4951368;27;20074;-89
2021/03/04 01:33:12;;;;;;;96.38;32.00;;;;;;;;;;4945562;28;20480;-90
2021/03/04 01:35:35;;;;;;;77.10;23.23;;;3.20;99.90;;;;;;4945737;27;20414;-88
2021/03/04 01:38:05;;;;;;;75.88;23.55;;;3.10;99.90;;;;;;4958344;27;20082;-90
2021/03/04 01:41:00;;;;;;;83.85;26.23;;;3.10;99.90;;;;;;4942816;27;20913;-89
2021/03/04 01:43:24;;;;;;;85.82;27.17;;;3.00;99.90;;;;;;4956911;27;20147;-88
2021/03/04 01:45:58;;;;;;;69.13;24.27;;;2.90;99.90;;;;;;4954076;27;20481;-88
2021/03/04 01:48:20;;;;;;;71.15;25.23;;;2.90;99.90;;;;;;4965427;27;20105;-90
2021/03/04 01:50:47;;;;;;;71.97;24.73;;;2.80;99.90;;;;;;4944287;27;20139;-88
2021/03/04 01:53:11;;;;;;;70.90;23.05;;;2.80;99.90;;;;;;4947896;27;20128;-89
2021/03/04 01:55:43;;;;;;;74.87;24.30;;;2.60;99.90;;;;;;4957022;27;20082;-88
2021/03/04 01:58:06;;;;;;;57.83;18.65;;;2.40;99.90;;;;;;4957201;27;20086;-88
2021/03/04 02:00:38;;;;;;;55.95;20.45;;;2.30;99.90;;;;;;4949272;27;20153;-90
2021/03/04 02:03:00;;;;;;;48.30;17.30;;;2.30;99.90;;;;;;4954305;27;20090;-90
2021/03/04 02:05:54;;;;;;;47.85;17.98;;;2.20;99.90;;;;;;4950774;27;20110;-87
2021/03/04 02:08:40;;;;;;;42.42;14.68;;;2.10;99.90;;;;;;4944037;28;20140;-88
2021/03/04 02:11:32;;;;;;;32.20;13.85;;;2.00;99.90;;;;;;4952928;27;20083;-89
2021/03/04 02:14:05;;;;;;;36.50;12.77;;;2.10;99.90;;;;;;4958836;27;20112;-88
2021/03/04 02:16:34;;;;;;;45.15;16.98;;;2.00;99.90;;;;;;4956031;27;20115;-90
2021/03/04 02:19:10;;;;;;;40.45;15.52;;;2.10;99.90;;;;;;4950366;27;20089;-89
2021/03/04 02:22:01;;;;;;;41.03;14.15;;;2.10;99.90;;;;;;4943302;27;20089;-89
2021/03/04 02:24:40;;;;;;;26.30;10.80;;;2.00;99.90;;;;;;4951793;27;20091;-86
2021/03/04 02:27:13;;;;;;;30.55;11.20;;;2.00;99.90;;;;;;4960701;27;20087;-89
2021/03/04 02:29:42;;;;;;;39.28;14.15;;;2.00;99.90;;;;;;4952075;27;20137;-89
2021/03/04 02:32:12;;;;;;;34.60;11.68;;;2.00;99.90;;;;;;4950483;28;20120;-90
2021/03/04 02:34:43;;;;;;;33.17;12.55;;;1.20;99.90;;;;;;4952423;27;20074;-90
2021/03/04 02:37:06;;;;;;;32.92;12.05;;;2.00;99.90;;;;;;4952803;27;20598;-89
2021/03/04 02:39:31;;;;;;;21.58;10.02;;;2.00;99.90;;;;;;4953226;27;20083;-88
2021/03/04 02:42:05;;;;;;;19.10;7.47;;;1.80;99.90;;;;;;4952248;27;20230;-88
2021/03/04 02:44:29;;;;;;;23.50;9.13;;;1.80;99.90;;;;;;4956863;27;20079;-89
2021/03/04 02:46:53;;;;;;;22.63;9.50;;;1.80;99.90;;;;;;4950548;27;20119;-89
2021/03/04 02:49:57;;;;;;;22.23;9.10;;;1.80;99.90;;;;;;4951737;27;20094;-89
2021/03/04 02:52:21;;;;;;;19.58;6.45;;;1.80;99.90;;;;;;4954438;27;20080;-87
2021/03/04 02:54:46;;;;;;;16.25;6.63;;;1.80;99.90;;;;;;4945916;27;20083;-86
2021/03/04 02:57:33;;;;;;;22.80;9.53;;;1.80;99.90;;;;;;4949090;27;20160;-88
2021/03/04 03:00:13;;;;;;;17.75;7.80;;;1.80;99.90;;;;;;4955915;27;20087;-87
2021/03/04 03:02:44;;;;;;;23.98;9.73;;;1.80;99.90;;;;;;4950227;27;20148;-85
2021/03/04 03:05:11;;;;;;;20.88;8.02;;;1.90;99.90;;;;;;4949873;27;20087;-89
2021/03/04 03:08:06;;;;;;;22.60;8.30;;;1.90;99.90;;;;;;4956032;27;20074;-89
2021/03/04 03:10:49;;;;;;;19.52;8.07;;;1.90;99.90;;;;;;4953343;27;20080;-88
2021/03/04 03:13:20;;;;;;;19.27;8.73;;;2.00;99.90;;;;;;4959309;27;20096;-89
2021/03/04 03:15:52;;;;;;;24.15;9.45;;;2.00;99.90;;;;;;4953149;27;20090;-91
2021/03/04 03:18:16;;;;;;;16.52;7.43;;;2.00;99.90;;;;;;4941438;27;20464;-90
2021/03/04 03:21:00;;;;;;;23.73;8.52;;;2.00;99.90;;;;;;4951405;27;20105;-88
2021/03/04 03:23:22;;;;;;;26.98;10.07;;;2.00;99.90;;;;;;4962282;27;20079;-89
2021/03/04 03:26:24;;;;;;;21.05;8.73;;;2.00;99.90;;;;;;4948902;28;20479;-90
2021/03/04 03:28:47;;;;;;;18.75;8.45;;;2.10;99.90;;;;;;4955412;27;20084;-88
2021/03/04 03:31:12;;;;;;;22.25;9.20;;;2.10;99.90;;;;;;4948895;28;20534;-88
2021/03/04 03:33:38;;;;;;;20.88;6.45;;;2.10;99.90;;;;;;4949819;27;20126;-89
2021/03/04 03:36:18;;;;;;;17.45;8.10;;;2.20;99.90;;;;;;4948287;28;20441;-89
2021/03/04 03:39:24;;;;;;;20.42;8.45;;;2.20;99.90;;;;;;4950859;27;20086;-84
2021/03/04 03:41:51;;;;;;;21.73;8.23;;;2.20;99.90;;;;;;4949249;27;20079;-88
2021/03/04 03:44:15;;;;;;;17.33;6.70;;;2.20;99.90;;;;;;4947363;27;20085;-90
2021/03/04 03:46:48;;;;;;;13.93;6.25;;;2.20;99.90;;;;;;4951673;27;20090;-89
2021/03/04 03:49:27;;;;;;;13.63;6.28;;;2.20;99.90;;;;;;4953028;27;20091;-90
2021/03/04 03:52:00;;;;;;;12.85;6.85;;;2.30;99.90;;;;;;4943222;27;20508;-88
2021/03/04 03:54:27;;;;;;;20.35;7.97;;;2.30;99.90;;;;;;4950035;27;20143;-88
2021/03/04 03:56:52;;;;;;;16.38;6.88;;;2.30;99.90;;;;;;4952188;27;20090;-88
2021/03/04 03:59:15;;;;;;;10.65;4.55;;;2.30;99.90;;;;;;4947595;27;20110;-90
2021/03/04 04:01:39;;;;;;;16.45;6.40;;;2.30;99.90;;;;;;4946763;27;20097;-90
2021/03/04 04:04:12;;;;;;;17.90;7.03;;;2.30;99.90;;;;;;4952559;28;20442;-89
2021/03/04 04:06:35;;;;;;;19.10;6.60;;;2.40;99.90;;;;;;4955916;28;20090;-89
2021/03/04 04:09:11;;;;;;;15.60;5.95;;;2.40;99.90;;;;;;4949556;27;20086;-88
2021/03/04 04:14:51;;;;;;;11.07;5.47;;;2.40;99.90;;;;;;4952960;27;20078;-89
2021/03/04 04:17:23;;;;;;;11.23;5.70;;;2.40;99.90;;;;;;4941616;27;20086;-87
2021/03/04 04:19:48;;;;;;;10.85;4.57;;;2.40;99.90;;;;;;4946842;27;20078;-84
2021/03/04 04:22:20;;;;;;;11.25;4.28;;;2.40;99.90;;;;;;4948941;27;20082;-89
2021/03/04 04:24:43;;;;;;;15.90;5.57;;;2.40;99.90;;;;;;4948151;27;20090;-89
2021/03/04 04:27:24;;;;;;;13.02;5.22;;;2.50;99.90;;;;;;4955832;27;20097;-90
2021/03/04 04:29:56;;;;;;;10.48;4.70;;;2.50;99.90;;;;;;4952992;27;20090;-89
2021/03/04 04:32:40;;;;;;;7.57;3.33;;;2.50;99.90;;;;;;4941722;27;20086;-87
2021/03/04 04:35:04;;;;;;;13.30;4.25;;;2.50;99.90;;;;;;4953458;27;20082;-85
2021/03/04 04:37:27;;;;;;;9.82;4.78;;;2.50;99.90;;;;;;4954749;27;20097;-89
2021/03/04 04:39:50;;;;;;;11.63;4.57;;;2.50;99.90;;;;;;4945228;27;20094;-89
2021/03/04 04:42:13;;;;;;;16.13;5.05;;;2.50;99.90;;;;;;4953106;27;20571;-88
2021/03/04 04:44:47;;;;;;;17.73;5.07;;;2.50;99.90;;;;;;4964090;27;20090;-85
2021/03/04 04:47:28;;;;;;;8.82;3.88;;;2.50;99.90;;;;;;4961028;27;20090;-90
2021/03/04 04:49:51;;;;;;;9.90;4.80;;;2.50;99.90;;;;;;4955084;27;20089;-89
2021/03/04 04:52:16;;;;;;;12.80;4.45;;;2.60;99.90;;;;;;4960188;27;20078;-89
2021/03/04 04:54:46;;;;;;;8.82;4.35;;;2.50;99.90;;;;;;4966702;27;20100;-90
2021/03/04 04:57:15;;;;;;;9.60;4.90;;;2.50;99.90;;;;;;4946470;27;20082;-89
2021/03/04 04:59:39;;;;;;;10.93;5.00;;;2.50;99.90;;;;;;4941570;28;20101;-89
2021/03/04 05:02:09;;;;;;;11.55;4.85;;;2.50;99.90;;;;;;4953570;27;20200;-89
2021/03/04 05:04:39;;;;;;;12.02;4.72;;;2.50;99.90;;;;;;4947879;27;20086;-89
2021/03/04 05:07:09;;;;;;;13.13;4.15;;;2.50;99.90;;;;;;4943088;27;20082;-90
2021/03/04 05:09:38;;;;;;;8.10;4.53;;;2.50;99.90;;;;;;4951761;27;25001;-87
2021/03/04 05:12:20;;;;;;;10.02;4.47;;;2.50;99.90;;;;;;4951522;28;20078;-87
2021/03/04 05:14:44;;;;;;;10.68;4.80;;;2.50;99.90;;;;;;4947641;27;20258;-90
2021/03/04 05:17:19;;;;;;;14.23;5.13;;;2.50;99.90;;;;;;4950553;27;20078;-88
2021/03/04 05:20:04;;;;;;;14.52;5.10;;;2.50;99.90;;;;;;4945587;28;20089;-89
2021/03/04 05:22:33;;;;;;;9.98;4.80;;;2.50;99.90;;;;;;4948726;27;20086;-87
2021/03/04 05:25:05;;;;;;;9.93;4.65;;;2.50;99.90;;;;;;4951398;27;20078;-90
2021/03/04 05:27:34;;;;;;;11.90;4.43;;;2.40;99.90;;;;;;4951591;27;20078;-90
2021/03/04 05:29:58;;;;;;;9.75;4.53;;;2.50;99.90;;;;;;4948387;27;20125;-89
2021/03/04 05:32:43;;;;;;;10.90;4.80;;;2.40;99.90;;;;;;4951354;27;20134;-89
2021/03/04 05:35:12;;;;;;;10.85;4.68;;;2.40;99.90;;;;;;4951491;27;20089;-88
2021/03/04 05:37:40;;;;;;;11.77;5.03;;;2.40;99.90;;;;;;4953255;27;20090;-89
2021/03/04 05:40:23;;;;;;;15.60;5.00;;;2.40;99.90;;;;;;4952263;27;20093;-90
2021/03/04 05:42:48;;;;;;;6.38;3.08;;;2.40;99.90;;;;;;4948717;27;20086;-89
2021/03/04 05:45:13;;;;;;;11.35;4.78;;;2.50;99.90;;;;;;4954833;27;20081;-89
2021/03/04 05:47:42;;;;;;;15.50;3.92;;;2.40;99.90;;;;;;4953433;27;20081;-90
2021/03/04 05:50:28;;;;;;;13.55;4.20;;;2.50;99.90;;;;;;4953877;27;20172;-91
2021/03/04 05:52:59;;;;;;;9.40;3.45;;;2.50;99.90;;;;;;4939933;27;20098;-88
2021/03/04 05:55:33;;;;;;;11.38;4.15;;;2.50;99.90;;;;;;4958327;27;20078;-90
2021/03/04 05:58:31;;;;;;;14.63;4.65;;;2.50;99.90;;;;;;4942539;27;20090;-84
2021/03/04 06:01:06;;;;;;;8.88;3.90;;;2.60;99.90;;;;;;4955003;27;20082;-88
2021/03/04 06:03:36;;;;;;;10.27;4.53;;;2.50;99.90;;;;;;4950682;27;20077;-89
2021/03/04 06:06:00;;;;;;;18.30;4.78;;;2.60;99.90;;;;;;4951371;27;20094;-90
2021/03/04 06:08:22;;;;;;;10.38;4.15;;;2.50;99.90;;;;;;4950551;27;20085;-89
2021/03/04 06:10:52;;;;;;;15.73;4.30;;;2.60;99.90;;;;;;4951204;28;20087;-89
2021/03/04 06:13:20;;;;;;;9.52;3.90;;;2.60;99.90;;;;;;4949488;27;20090;-90
2021/03/04 06:16:00;;;;;;;12.35;4.45;;;2.50;99.90;;;;;;4952820;27;20097;-89
2021/03/04 06:18:23;;;;;;;6.70;3.88;;;2.60;99.90;;;;;;4950837;27;20516;-88
2021/03/04 06:21:18;;;;;;;8.75;4.50;;;2.60;99.90;;;;;;4953932;27;20090;-90
2021/03/04 06:23:44;;;;;;;11.75;4.85;;;2.60;99.90;;;;;;4951586;27;20105;-89
2021/03/04 06:26:25;;;;;;;9.85;4.32;;;2.60;99.90;;;;;;4940119;27;20122;-89
2021/03/04 06:28:57;;;;;;;7.00;4.00;;;2.60;99.90;;;;;;4941907;27;20086;-89
2021/03/04 06:31:33;;;;;;;8.52;3.92;;;2.70;99.90;;;;;;4958746;27;20082;-89
2021/03/04 06:34:16;;;;;;;13.05;5.28;;;2.70;99.90;;;;;;4953260;27;20158;-90
2021/03/04 06:36:38;;;;;;;7.70;4.07;;;2.70;99.90;;;;;;4945500;28;20093;-87
2021/03/04 06:42:14;;;;;;;16.38;4.97;;;2.80;99.90;;;;;;4948657;27;20104;-89
2021/03/04 06:45:01;;;;;;;11.13;4.32;;;2.70;99.90;;;;;;4947708;27;20468;-89
2021/03/04 06:47:25;;;;;;;14.25;4.05;;;2.80;99.90;;;;;;4954300;27;20090;-89
2021/03/04 06:49:52;;;;;;;12.88;4.38;;;2.80;99.90;;;;;;4958168;27;20443;-89
2021/03/04 06:52:27;;;;;;;12.30;4.93;;;2.80;99.90;;;;;;4963039;27;20085;-89
2021/03/04 06:55:17;;;;;;;12.63;4.82;;;2.90;99.90;;;;;;4922848;27;20115;-85
2021/03/04 06:57:40;;;;;;;8.80;4.60;;;2.90;99.90;;;;;;4931792;28;20537;-90
2021/03/04 07:00:07;;;;;;;13.27;5.22;;;2.90;99.90;;;;;;4926707;28;20537;-89
2021/03/04 07:02:37;;;;;;;11.63;4.80;;;2.40;99.90;;;;;;4927206;28;20078;-88
2021/03/04 07:05:04;;;;;;;11.27;4.03;;;3.00;99.90;;;;;;4925152;28;20113;-89
2021/03/04 07:07:28;;;;;;;10.73;4.15;;;3.00;99.90;;;;;;4935604;28;20143;-90
2021/03/04 07:10:13;;;;;;;11.40;3.83;;;3.00;99.90;;;;;;4931286;28;20089;-90
2021/03/04 07:12:45;;;;;;;10.45;4.30;;;3.10;99.90;;;;;;4936543;28;20081;-88
2021/03/04 07:15:11;;;;;;;10.88;3.88;;;3.10;99.90;;;;;;4937526;28;20615;-89
2021/03/04 07:17:34;;;;;;;8.57;4.07;;;3.10;99.90;;;;;;4935737;28;20083;-90
2021/03/04 07:20:32;;;;;;;16.33;4.57;;;3.20;99.90;;;;;;4944249;28;20086;-89
2021/03/04 07:22:57;;;;;;;6.32;3.58;;;3.20;99.90;;;;;;4919065;28;20086;-89
2021/03/04 07:25:31;;;;;;;8.17;3.87;;;3.20;99.90;;;;;;4929215;28;20548;-90
2021/03/04 07:27:56;;;;;;;12.10;3.63;;;;;;;;;;4933193;28;20085;-88
2021/03/04 07:30:22;;;;;;;8.80;3.42;;;3.30;99.90;;;;;;4921154;28;20086;-90
2021/03/04 07:32:44;;;;;;;9.85;4.28;;;3.30;99.90;;;;;;4937239;28;20094;-89
2021/03/04 07:35:23;;;;;;;10.25;3.40;;;3.30;99.90;;;;;;4937007;28;20082;-88
2021/03/04 07:37:46;;;;;;;12.30;4.03;;;3.30;99.90;;;;;;4931554;28;20840;-90
2021/03/04 07:40:12;;;;;;;7.60;3.95;;;3.30;99.90;;;;;;4925208;28;20091;-89
2021/03/04 07:42:41;;;;;;;;;;;3.30;99.90;;;;;;4909177;28;20090;-90
2021/03/04 07:45:14;;;;;;;13.30;3.60;;;3.40;99.90;;;;;;4950110;27;19966;-89
2021/03/04 07:48:07;;;;;;;7.07;3.78;;;3.40;99.90;;;;;;4921341;28;20135;-90
2021/03/04 07:50:36;;;;;;;18.38;4.55;;;3.40;99.90;;;;;;4933148;28;20116;-89
2021/03/04 07:53:03;;;;;;;6.95;4.18;;;3.40;99.90;;;;;;4934855;28;20414;-89
2021/03/04 07:55:38;;;;;;;8.85;4.30;;;3.40;99.90;;;;;;4938187;28;20165;-90
2021/03/04 07:58:01;;;;;;;8.30;3.95;;;3.40;99.90;;;;;;4929651;28;20097;-89
2021/03/04 08:00:34;;;;;;;12.68;4.43;;;3.40;99.90;;;;;;4940201;28;20093;-87
2021/03/04 08:03:04;;;;;;;8.23;3.90;;;3.40;99.90;;;;;;4934404;28;20168;-88
2021/03/04 08:05:39;;;;;;;11.13;4.63;;;3.50;99.90;;;;;;4917978;28;20095;-89
2021/03/04 08:08:14;;;;;;;8.60;3.97;;;3.50;99.90;;;;;;4921507;28;20147;-88
2021/03/04 08:11:03;;;;;;;17.42;4.20;;;3.60;99.90;;;;;;4930488;28;20093;-89
2021/03/04 08:13:41;;;;;;;13.55;4.25;;;3.60;99.90;;;;;;4926963;28;20083;-87
2021/03/04 08:16:16;;;;;;;15.43;4.10;;;3.60;99.90;;;;;;4935356;28;20082;-86
2021/03/04 08:18:40;;;;;;;10.60;3.72;;;3.60;99.90;;;;;;4928963;28;20159;-89
2021/03/04 08:21:07;;;;;;;13.63;4.05;;;3.60;99.90;;;;;;4927303;28;20083;-89
2021/03/04 08:23:43;;;;;;;11.95;4.47;;;3.60;99.90;;;;;;4930847;28;20105;-89
2021/03/04 08:26:25;;;;;;;18.02;4.55;;;3.60;99.90;;;;;;4923745;28;22396;-89
2021/03/04 08:28:47;;;;;;;7.88;3.65;;;;;;;;;;4923968;28;20095;-88
2021/03/04 08:31:17;;;;;;;9.73;3.97;;;3.70;99.90;;;;;;4942362;28;20313;-90
2021/03/04 08:33:41;;;;;;;13.68;3.88;;;3.80;99.90;;;;;;4919099;28;20098;-87
2021/03/04 08:36:04;;;;;;;8.50;3.70;;;3.80;99.90;;;;;;4931587;28;20086;-90
2021/03/04 08:38:39;;;;;;;9.65;3.75;;;3.80;99.90;;;;;;4933893;28;20087;-87
2021/03/04 08:41:01;;;;;;;11.30;3.88;;;3.80;99.90;;;;;;4935448;28;20096;-85
2021/03/04 08:43:27;;;;;;;8.48;3.45;;;3.80;99.90;;;;;;4924358;27;20109;-88
2021/03/04 08:45:57;;;;;;;10.82;3.60;;;3.70;99.90;;;;;;4931927;27;20089;-86
2021/03/04 08:48:21;;;;;;;11.65;3.67;;;3.80;99.90;;;;;;4931095;28;20075;-89
2021/03/04 08:50:48;;;;;;;12.73;3.90;;;3.70;99.90;;;;;;4931576;28;20097;-89
2021/03/04 08:53:12;;;;;;;10.43;3.95;;;3.70;99.90;;;;;;4920965;28;20496;-89
2021/03/04 08:55:43;;;;;;;13.05;3.80;;;3.70;99.90;;;;;;4928096;28;20612;-89
2021/03/04 08:58:31;;;;;;;7.03;3.70;;;3.70;99.90;;;;;;4928588;28;20090;-90
2021/03/04 09:01:09;;;;;;;11.48;3.58;;;3.70;99.90;;;;;;4908936;28;20545;-89
2021/03/04 09:03:58;;;;;;;9.05;3.80;;;3.80;99.90;;;;;;4872322;28;20089;-90
2021/03/04 09:06:48;;;;;;;11.02;3.75;;;3.80;99.90;;;;;;4870154;28;20178;-87
2021/03/04 09:09:30;;;;;;;12.70;3.17;;;3.70;99.90;;;;;;4865469;27;20086;-86
2021/03/04 09:12:09;;;;;;;7.53;3.65;;;3.70;99.90;;;;;;4860596;28;20885;-89
2021/03/04 09:15:15;;;;;;;10.20;3.65;;;3.80;99.90;;;;;;4863121;28;20081;-87
2021/03/04 09:18:02;;;;;;;15.40;4.18;;;3.70;99.90;;;;;;4869252;28;20093;-88
2021/03/04 09:24:16;;;;;;;13.48;3.65;;;3.70;99.90;;;;;;4862987;27;20127;-89
2021/03/04 09:30:16;;;;;;;9.07;3.78;;;3.80;99.90;;;;;;4857132;28;20095;-89
2021/03/04 09:36:24;;;;;;;7.68;3.67;;;3.80;99.90;;;;;;4870843;28;20086;-86
2021/03/04 09:39:03;;;;;;;10.33;3.97;;;3.80;99.90;;;;;;4865739;28;20236;-89
2021/03/04 09:42:24;;;;;;;12.18;3.75;;;3.80;99.90;;;;;;4870953;28;20595;-89
2021/03/04 09:45:23;;;;;;;15.10;4.80;;;3.80;99.90;;;;;;4870953;27;20529;-89
2021/03/04 10:08:53;;;;;;;8.55;4.28;;;3.80;99.90;;;;;;4865469;28;20079;-88
2021/03/04 10:15:41;;;;;;;20.23;4.82;;;3.90;99.90;;;;;;4874049;27;20548;-86
2021/03/04 10:25:23;;;;;;;14.05;4.78;;;3.90;99.90;;;;;;4861365;28;20084;-87
2021/03/04 10:28:43;;;;;;;10.20;4.43;;;4.00;99.90;;;;;;4864353;28;20114;-86
2021/03/04 10:40:53;;;;;;;12.32;4.95;;;3.80;99.90;;;;;;4860253;28;20173;-87
2021/03/04 10:46:35;;;;;;;18.70;4.63;;;3.90;99.90;;;;;;4872556;27;20131;-88
2021/03/04 10:49:34;;;;;;;8.68;4.75;;;4.00;99.90;;;;;;4870161;28;20243;-88
2021/03/04 10:51:57;;;;;;;17.02;4.93;;;;;;;;;;4880782;28;20098;-89
2021/03/04 10:54:19;;;;;;;10.73;4.50;;;4.00;99.90;;;;;;4929712;28;20089;-87
2021/03/04 10:56:44;;;;;;;17.38;5.00;;;4.00;99.90;;;;;;4929595;28;20099;-88
2021/03/04 10:59:07;;;;;;;10.30;4.95;;;3.90;99.90;;;;;;4929452;28;20545;-89
2021/03/04 11:01:29;;;;;;;12.13;4.72;;;3.90;99.90;;;;;;4933062;28;20093;-87
2021/03/04 11:03:53;;;;;;;11.02;5.07;;;4.00;99.90;;;;;;4924550;28;20087;-85
2021/03/04 11:06:19;;;;;;;16.83;5.35;;;4.00;99.90;;;;;;4932816;28;20490;-87
2021/03/04 11:08:44;;;;;;;13.88;6.25;;;4.10;99.90;;;;;;4934963;28;20112;-87
2021/03/04 11:11:06;;;;;;;17.58;5.60;;;4.10;99.90;;;;;;4930974;28;20131;-84
2021/03/04 11:13:36;;;;;;;13.18;4.75;;;;;;;;;;4938247;28;20622;-89
2021/03/04 11:16:01;;;;;;;11.93;4.32;;;4.20;99.90;;;;;;4932233;28;20082;-88
2021/03/04 11:18:24;;;;;;;18.08;4.85;;;4.30;99.90;;;;;;4930850;28;20090;-89
2021/03/04 11:20:58;;;;;;;11.63;4.50;;;4.30;99.90;;;;;;4930654;28;20095;-86
2021/03/04 11:23:20;;;;;;;11.57;4.18;;;4.40;99.90;;;;;;4931749;28;20090;-90
2021/03/04 11:25:43;;;;;;;8.48;3.25;;;4.40;99.90;;;;;;4935038;28;20426;-80
2021/03/04 11:28:08;;;;;;;13.63;4.55;;;4.40;99.90;;;;;;4935793;28;20452;-77
2021/03/04 11:30:32;;;;;;;10.27;3.92;;;4.40;99.90;;;;;;4928970;28;20156;-78
2021/03/04 11:32:56;;;;;;;9.13;3.88;;;4.50;99.90;;;;;;4933920;28;20101;-78
2021/03/04 11:35:27;;;;;;;11.68;3.80;;;4.50;99.90;;;;;;4931410;28;20528;-80
2021/03/04 11:37:50;;;;;;;8.60;3.83;;;4.50;99.90;;;;;;4927732;28;20108;-86
2021/03/04 11:40:14;;;;;;;14.00;3.80;;;4.50;99.90;;;;;;4932027;28;20089;-82
2021/03/04 11:42:36;;;;;;;16.17;3.42;;;4.50;99.90;;;;;;4927631;28;20085;-84
2021/03/04 11:44:59;;;;;;;5.50;2.95;;;4.50;99.90;;;;;;4926306;28;20090;-78
2021/03/04 11:47:23;;;;;;;14.93;4.07;;;4.40;99.90;;;;;;4930095;28;20173;-80
2021/03/04 11:49:47;;;;;;;13.75;3.90;;;4.30;99.90;;;;;;4929945;28;20092;-83
2021/03/04 11:52:09;;;;;;;9.85;3.58;;;4.30;99.90;;;;;;4928331;28;20090;-82
2021/03/04 11:54:32;;;;;;;9.07;3.78;;;4.30;99.90;;;;;;4920928;28;20109;-81
2021/03/04 11:56:55;;;;;;;10.10;4.15;;;4.30;99.90;;;;;;4920991;28;20437;-84
2021/03/04 11:59:18;;;;;;;14.45;4.10;;;4.30;99.90;;;;;;4920394;28;20083;-81
2021/03/04 12:01:41;;;;;;;9.55;4.53;;;4.20;99.90;;;;;;4922689;28;20147;-84
2021/03/04 12:04:06;;;;;;;10.40;4.10;;;4.30;99.90;;;;;;4934034;28;20163;-84
2021/03/04 12:06:29;;;;;;;16.25;3.78;;;4.30;99.90;;;;;;4933838;28;20087;-85
2021/03/04 12:08:54;;;;;;;9.50;4.22;;;4.20;99.90;;;;;;4923387;28;20083;-85
2021/03/04 12:11:17;;;;;;;18.48;5.32;;;4.20;99.90;;;;;;4926325;28;20090;-83
2021/03/04 12:13:39;;;;;;;11.73;3.95;;;4.20;99.90;;;;;;4930046;28;20094;-83
2021/03/04 12:16:05;;;;;;;15.32;3.92;;;4.30;99.90;;;;;;4921103;28;20079;-85
2021/03/04 12:18:28;;;;;;;17.02;3.55;;;4.20;99.90;;;;;;4923709;28;20098;-84
2021/03/04 12:20:52;;;;;;;11.23;3.92;;;4.10;99.90;;;;;;4927768;28;20083;-83
2021/03/04 12:23:15;;;;;;;16.92;5.07;;;3.50;99.90;;;;;;4926273;28;20086;-83
2021/03/04 12:25:39;;;;;;;11.45;3.97;;;4.20;99.90;;;;;;4934872;28;20082;-82
2021/03/04 12:28:01;;;;;;;10.43;4.18;;;4.30;99.90;;;;;;4933140;28;20090;-83
2021/03/04 12:30:25;;;;;;;18.23;4.70;;;4.40;99.90;;;;;;4927929;28;20078;-82
2021/03/04 12:32:47;;;;;;;13.05;3.83;;;4.40;99.90;;;;;;4927403;28;20090;-82
2021/03/04 12:35:11;;;;;;;13.10;3.55;;;4.40;99.90;;;;;;4935208;28;20114;-83
2021/03/04 12:37:35;;;;;;;19.73;3.85;;;4.40;99.90;;;;;;4928742;28;20086;-82
2021/03/04 12:39:57;;;;;;;14.20;3.35;;;4.40;99.90;;;;;;4936071;28;20078;-83
2021/03/04 12:42:20;;;;;;;12.82;3.60;;;4.50;99.90;;;;;;4932896;28;20090;-83
2021/03/04 12:44:44;;;;;;;11.15;3.90;;;4.50;99.90;;;;;;4931116;28;20086;-82
2021/03/04 12:47:07;;;;;;;10.15;3.65;;;4.50;99.90;;;;;;4932552;28;20093;-80
2021/03/04 12:49:29;;;;;;;6.63;3.63;;;4.40;99.90;;;;;;4931475;28;20098;-81
2021/03/04 12:51:52;;;;;;;17.95;4.43;;;4.40;99.90;;;;;;4933081;28;20131;-81
2021/03/04 12:54:16;;;;;;;9.75;3.78;;;4.40;99.90;;;;;;4928882;28;20125;-80
2021/03/04 12:56:38;;;;;;;6.53;3.40;;;4.40;99.90;;;;;;4935838;28;20086;-80
2021/03/04 12:59:03;;;;;;;8.40;3.40;;;4.30;99.90;;;;;;4938571;28;20094;-79
2021/03/04 13:01:25;;;;;;;8.35;3.97;;;4.30;99.90;;;;;;4938355;28;20165;-81
2021/03/04 13:03:48;;;;;;;10.20;3.60;;;;;;;;;;4934283;28;20519;-81
2021/03/04 13:06:11;;;;;;;8.10;4.38;;;4.30;99.90;;;;;;4932327;27;20418;-81
2021/03/04 13:08:33;;;;;;;12.40;4.60;;;;;;;;;;4936923;28;20136;-80
2021/03/04 13:10:57;;;;;;;8.82;4.10;;;4.20;99.90;;;;;;4935197;28;20086;-81
2021/03/04 13:13:20;;;;;;;11.85;3.92;;;4.30;99.90;;;;;;4938117;28;20090;-81
2021/03/04 13:15:42;;;;;;;16.70;4.07;;;4.20;99.90;;;;;;4939051;28;20428;-80
2021/03/04 13:18:06;;;;;;;11.30;3.67;;;4.30;99.90;;;;;;4935942;28;20094;-80
2021/03/04 13:20:28;;;;;;;10.27;4.15;;;4.50;99.90;;;;;;4936495;28;20120;-81
2021/03/04 13:22:51;;;;;;;12.23;4.30;;;4.30;99.90;;;;;;4935503;28;20094;-81
2021/03/04 13:25:15;;;;;;;15.48;4.22;;;4.30;99.90;;;;;;4935750;28;20196;-81
2021/03/04 13:27:38;;;;;;;13.90;4.43;;;4.30;99.90;;;;;;4935264;28;20083;-81
2021/03/04 13:30:01;;;;;;;7.68;3.60;;;4.30;99.90;;;;;;4936079;28;20117;-82
2021/03/04 13:32:23;;;;;;;12.48;3.88;;;4.30;99.90;;;;;;4936519;28;20159;-81
2021/03/04 13:34:46;;;;;;;7.05;3.90;;;4.30;99.90;;;;;;4934940;28;20094;-82
2021/03/04 13:37:09;;;;;;;11.07;3.88;;;4.30;99.90;;;;;;4936379;28;20090;-81
2021/03/04 13:39:31;;;;;;;10.18;4.05;;;4.40;99.90;;;;;;4931050;28;20560;-79
2021/03/04 13:41:54;;;;;;;16.13;4.40;;;4.40;99.90;;;;;;4934250;28;20089;-81
2021/03/04 13:44:17;;;;;;;8.88;3.70;;;;;;;;;;4935720;28;20085;-80
2021/03/04 13:46:40;;;;;;;10.70;4.00;;;5.80;99.90;;;;;;4936921;28;20090;-82
2021/03/04 13:49:04;;;;;;;17.52;4.32;;;4.30;99.90;;;;;;4934826;28;20097;-82
2021/03/04 13:51:27;;;;;;;13.27;4.13;;;4.40;99.90;;;;;;4936056;28;20089;-80
2021/03/04 13:53:50;;;;;;;9.93;4.00;;;4.30;99.90;;;;;;4934217;28;20561;-81
2021/03/04 13:56:13;;;;;;;11.27;3.97;;;4.30;99.90;;;;;;4931217;28;20090;-80
2021/03/04 13:58:36;;;;;;;13.15;4.32;;;4.30;99.90;;;;;;4933109;28;20089;-82
2021/03/04 14:01:00;;;;;;;21.85;4.95;;;;;;;;;;4935923;28;20093;-80
2021/03/04 14:03:22;;;;;;;10.20;4.22;;;4.20;99.90;;;;;;4932828;28;20083;-81
2021/03/04 14:05:46;;;;;;;9.43;4.32;;;4.20;99.90;;;;;;4930489;28;20090;-80
2021/03/04 14:08:09;;;;;;;16.63;4.25;;;4.10;99.90;;;;;;4933220;28;20082;-80